Skip Navigation LinksHome page > Weather > Current weather Skip Navigation Links

Current Weather

Istanbul / Ataturk, Turkey

For information only: do not use for flight planning or navigation.
Latest weather
Observation time Wednesday, October 27, 2021 8:50 AM +03
Local time Wednesday, October 27, 2021 9:28 AM +03
Flight conditions Visual Meteorological Conditions
Winds
Wind direction North-Northeast (30°)
Wind speed 13 mph
Visibility 6.2 mi.
Sky condition
Ceiling unlimited
Cloud layer few clouds 3,500 ft.
Temperature 55°F
Dewpoint 50°F
Altimeter 30.24 in.Hg
Derived measurements
Relative humidity 82%
Density altitude -377 ft.
Remarks
No significant changes expected in the next two hours.
METAR LTBA 270550Z 03011KT 9999 FEW035 13/10 Q1024 NOSIG RMK RWY23 03012KT

Settings

Location code

InnerDrive.Weather 4.0.6770.0 Release CLR 4.0.30319.42000
Copyright ©2018 Inner Drive Technology. All rights reserved. Portions Copyright ©1986-2018 David Braverman.

Find weather

Site navigation


Skip Navigation Links

Place info

Page info

PayPal - The safer, easier way to pay online!

Return home.

Copyright ©2021 Inner Drive Technology. Purveyors of fine, hand-crafted computer software. Page printed 2021-10-27T06:28:27 UTC.